Time;durP1;ratioP1;P1;durP2;ratioP2;P2;SDS_P1;SDS_P2;PMS_P1;PMS_P2;Temp;Humidity;BMP_temperature;BMP_pressure;BME280_temperature;BME280_humidity;BME280_pressure;Samples;Min_cycle;Max_cycle;Signal;HPM_P1;HPM_P2
2022/12/21 03:01:08;;;;;;;19.23;17.73;;;6.00;99.90;;;;;;5795490;23;20539;-78
2022/12/21 03:04:06;;;;;;;18.43;17.13;;;6.00;99.90;;;;;;4927683;29;20259;-81
2022/12/21 03:06:52;;;;;;;18.10;16.83;;;6.10;99.90;;;;;;4909795;29;20207;-80
2022/12/21 03:09:31;;;;;;;18.50;17.20;;;6.10;99.90;;;;;;4924900;29;20205;-79
2022/12/21 03:12:03;;;;;;;18.00;16.80;;;6.20;99.90;;;;;;4925299;29;20230;-81
2022/12/21 03:14:42;;;;;;;18.13;16.73;;;6.30;99.90;;;;;;4922190;29;20194;-81
2022/12/21 03:17:18;;;;;;;18.13;16.83;;;6.30;99.90;;;;;;4925266;29;20212;-80
2022/12/21 03:19:51;;;;;;;18.07;16.77;;;6.30;99.90;;;;;;4927906;29;20230;-81
2022/12/21 03:22:26;;;;;;;18.10;16.90;;;6.30;99.90;;;;;;4929142;29;20325;-80
2022/12/21 03:25:00;;;;;;;18.07;16.77;;;6.20;99.90;;;;;;4930862;29;20206;-80
2022/12/21 03:27:31;;;;;;;17.60;16.50;;;6.20;99.90;;;;;;4928614;29;20650;-81
2022/12/21 03:30:02;;;;;;;17.27;16.07;;;6.20;99.90;;;;;;4929813;29;20544;-80
2022/12/21 03:32:34;;;;;;;17.30;16.13;;;6.30;99.90;;;;;;4924408;29;20229;-78
2022/12/21 03:35:05;;;;;;;17.43;16.33;;;6.40;99.90;;;;;;4932000;29;20201;-80
2022/12/21 03:37:35;;;;;;;17.53;16.40;;;6.50;99.90;;;;;;4919484;29;20207;-80
2022/12/21 03:40:10;;;;;;;16.47;15.47;;;6.60;99.90;;;;;;4926810;29;20201;-80
2022/12/21 03:42:41;;;;;;;16.97;15.87;;;6.70;99.90;;;;;;4927693;29;20220;-80
2022/12/21 03:45:11;;;;;;;17.07;15.97;;;6.70;99.90;;;;;;4927786;29;20298;-79
2022/12/21 03:47:43;;;;;;;16.73;15.73;;;6.80;99.90;;;;;;4928683;29;20691;-77
2022/12/21 03:50:14;;;;;;;17.37;16.27;;;6.80;99.90;;;;;;4925704;29;20235;-80
2022/12/21 03:52:56;;;;;;;17.43;16.33;;;6.80;99.90;;;;;;4919708;29;20683;-85
2022/12/21 03:55:28;;;;;;;17.40;16.30;;;6.90;99.90;;;;;;4920374;29;20213;-84
2022/12/21 03:57:56;;;;;;;17.43;16.33;;;6.90;99.90;;;;;;4932827;29;20266;-81
2022/12/21 04:00:24;;;;;;;18.57;17.37;;;6.90;99.90;;;;;;4918737;29;20211;-79
2022/12/21 04:02:57;;;;;;;17.80;16.70;;;6.90;99.90;;;;;;4925029;29;20230;-79
2022/12/21 04:05:30;;;;;;;17.80;16.70;;;6.90;99.90;;;;;;4923112;29;20210;-78
2022/12/21 04:07:57;;;;;;;18.37;17.27;;;6.90;99.90;;;;;;4926036;29;20205;-79
2022/12/21 04:10:26;;;;;;;18.23;17.13;;;6.90;99.90;;;;;;4925260;29;20262;-77
2022/12/21 04:12:51;;;;;;;17.77;16.73;;;6.90;99.90;;;;;;4923693;29;20243;-76
2022/12/21 04:15:21;;;;;;;18.77;17.67;;;7.00;99.90;;;;;;4922354;29;20203;-77
2022/12/21 04:17:49;;;;;;;17.47;16.47;;;7.00;99.90;;;;;;4924485;29;20200;-83
2022/12/21 04:20:19;;;;;;;18.60;17.43;;;7.00;99.90;;;;;;4926410;29;20208;-83
2022/12/21 04:28:20;;;;;;;17.87;16.87;;;7.10;99.90;;;;;;4926201;29;20191;-84
2022/12/21 04:30:47;;;;;;;17.57;16.57;;;7.20;99.90;;;;;;4931512;29;20224;-82
2022/12/21 04:33:16;;;;;;;17.80;16.80;;;7.20;99.90;;;;;;4930743;29;20262;-84
2022/12/21 04:38:27;;;;;;;17.67;16.67;;;7.30;99.90;;;;;;4934315;29;20214;-81
2022/12/21 04:40:54;;;;;;;17.80;16.80;;;7.30;99.90;;;;;;4920748;29;20242;-81
2022/12/21 04:43:22;;;;;;;17.37;16.37;;;7.40;99.90;;;;;;4927447;29;20683;-83
2022/12/21 04:45:49;;;;;;;17.23;16.23;;;7.40;99.90;;;;;;4919733;29;20661;-82
2022/12/21 04:48:17;;;;;;;17.43;16.37;;;7.40;99.90;;;;;;4924711;29;20211;-81
2022/12/21 04:50:45;;;;;;;17.57;16.57;;;7.40;99.90;;;;;;4932059;29;20228;-81
2022/12/21 04:53:12;;;;;;;16.90;16.00;;;7.50;99.90;;;;;;4927993;29;20211;-82
2022/12/21 04:55:38;;;;;;;17.30;16.40;;;7.50;99.90;;;;;;4931494;29;20207;-84
2022/12/21 04:58:05;;;;;;;18.00;17.00;;;7.50;99.90;;;;;;4928422;29;20199;-83
2022/12/21 05:00:32;;;;;;;19.07;17.97;;;7.50;99.90;;;;;;4924947;29;20200;-83
2022/12/21 05:02:59;;;;;;;17.90;16.90;;;7.50;99.90;;;;;;4922942;29;20228;-82
2022/12/21 05:05:26;;;;;;;17.90;16.83;;;7.50;99.90;;;;;;4936645;29;20713;-83
2022/12/21 05:07:54;;;;;;;17.57;16.57;;;7.50;99.90;;;;;;4928433;29;20220;-83
2022/12/21 05:10:21;;;;;;;18.20;17.20;;;7.50;99.90;;;;;;4927707;29;20318;-80
2022/12/21 05:12:48;;;;;;;18.63;17.53;;;7.50;99.90;;;;;;4905144;29;20251;-79
2022/12/21 05:15:16;;;;;;;17.83;16.83;;;7.50;99.90;;;;;;4947258;29;20275;-80
2022/12/21 05:17:43;;;;;;;17.27;16.37;;;7.40;99.90;;;;;;4936101;29;20270;-80
2022/12/21 05:20:11;;;;;;;18.10;17.10;;;7.50;99.90;;;;;;4927319;29;20219;-80
2022/12/21 05:22:37;;;;;;;18.20;17.20;;;7.50;99.90;;;;;;4926423;29;20325;-79
2022/12/21 05:25:06;;;;;;;18.23;17.17;;;7.60;99.90;;;;;;4925910;29;20204;-79
2022/12/21 05:27:33;;;;;;;18.07;17.07;;;7.60;99.90;;;;;;4919122;29;20200;-80
2022/12/21 05:30:00;;;;;;;18.00;17.00;;;7.60;99.90;;;;;;4925835;29;20259;-80
2022/12/21 05:32:26;;;;;;;17.80;16.80;;;7.70;99.90;;;;;;4940325;29;20669;-79
2022/12/21 05:34:53;;;;;;;18.07;17.07;;;7.70;99.90;;;;;;4937406;29;20222;-79
2022/12/21 05:37:20;;;;;;;17.93;16.93;;;7.70;99.90;;;;;;4937667;29;20218;-79
2022/12/21 05:39:47;;;;;;;18.10;17.10;;;7.70;99.90;;;;;;4938129;29;20204;-79
2022/12/21 05:42:15;;;;;;;17.87;16.87;;;7.80;99.90;;;;;;4933981;29;20248;-80
2022/12/21 05:44:42;;;;;;;17.90;16.90;;;7.80;99.90;;;;;;4926523;29;20205;-80
2022/12/21 05:47:08;;;;;;;18.10;17.10;;;7.80;99.90;;;;;;4933057;29;20736;-80
2022/12/21 05:49:35;;;;;;;17.87;16.87;;;7.80;99.90;;;;;;4929068;29;20201;-79
2022/12/21 05:52:02;;;;;;;18.00;17.00;;;7.80;99.90;;;;;;4930036;29;20216;-79
2022/12/21 05:54:29;;;;;;;18.13;17.20;;;7.80;99.90;;;;;;4930404;29;20220;-80
2022/12/21 05:56:56;;;;;;;17.90;16.90;;;7.80;99.90;;;;;;4927780;29;20200;-80
2022/12/21 05:59:24;;;;;;;18.10;17.10;;;7.90;99.90;;;;;;4923211;29;20199;-79
2022/12/21 06:01:51;;;;;;;18.37;17.37;;;7.90;99.90;;;;;;4927355;29;20264;-78
2022/12/21 06:04:18;;;;;;;18.23;17.23;;;7.90;99.90;;;;;;4922244;29;20255;-80
2022/12/21 06:06:46;;;;;;;18.30;17.30;;;7.90;99.90;;;;;;4927379;29;20208;-80
2022/12/21 06:09:13;;;;;;;18.13;17.13;;;7.90;99.90;;;;;;4927753;29;20520;-81
2022/12/21 06:11:40;;;;;;;18.37;17.37;;;7.90;99.90;;;;;;4924935;29;20220;-79
2022/12/21 06:14:06;;;;;;;19.00;17.93;;;8.00;99.90;;;;;;4928939;29;20231;-80
2022/12/21 06:16:35;;;;;;;18.43;17.33;;;8.00;99.90;;;;;;4936703;29;20207;-79
2022/12/21 06:19:02;;;;;;;18.43;17.43;;;8.10;99.90;;;;;;4931354;29;20196;-78
2022/12/21 06:21:29;;;;;;;18.70;17.70;;;8.10;99.90;;;;;;4927643;29;20216;-79
2022/12/21 06:23:56;;;;;;;18.93;17.87;;;8.20;99.90;;;;;;4923523;29;20233;-79
2022/12/21 06:26:23;;;;;;;18.80;17.70;;;8.20;99.90;;;;;;4941668;29;20555;-79
2022/12/21 06:28:51;;;;;;;19.17;18.13;;;8.30;99.90;;;;;;4917568;29;20607;-79
2022/12/21 06:31:19;;;;;;;19.43;18.33;;;8.30;99.90;;;;;;4914280;29;20224;-79
2022/12/21 06:33:47;;;;;;;19.47;18.37;;;8.40;99.90;;;;;;4931383;29;20239;-79
2022/12/21 06:36:15;;;;;;;19.33;18.20;;;8.40;99.90;;;;;;4936894;29;20207;-80
2022/12/21 06:38:42;;;;;;;19.30;18.20;;;8.50;99.90;;;;;;4936772;29;20203;-80
2022/12/21 06:41:11;;;;;;;18.73;17.73;;;8.50;99.90;;;;;;4928905;29;20665;-80
2022/12/21 06:43:40;;;;;;;19.07;18.07;;;8.60;99.90;;;;;;4940465;29;20719;-80
2022/12/21 06:46:08;;;;;;;19.20;18.10;;;8.60;99.90;;;;;;4925419;29;20202;-81
2022/12/21 06:48:36;;;;;;;18.90;17.90;;;8.70;99.90;;;;;;4925821;29;20204;-81
2022/12/21 06:51:06;;;;;;;18.70;17.70;;;8.60;99.90;;;;;;4920515;29;20328;-80
2022/12/21 06:53:35;;;;;;;18.93;17.93;;;8.70;99.90;;;;;;4930082;29;20219;-81
2022/12/21 06:56:04;;;;;;;18.97;17.97;;;8.70;99.90;;;;;;4926304;29;20617;-79
2022/12/21 06:58:31;;;;;;;19.00;18.00;;;8.70;99.90;;;;;;4914252;29;20223;-83
2022/12/21 07:01:03;;;;;;;18.70;17.70;;;8.70;99.90;;;;;;4921442;29;20227;-82
2022/12/21 07:03:30;;;;;;;19.17;18.17;;;8.70;99.90;;;;;;4918125;29;20204;-83
2022/12/21 07:05:57;;;;;;;19.57;18.47;;;8.60;99.90;;;;;;4906735;29;20255;-83
2022/12/21 07:08:25;;;;;;;19.60;18.30;;;8.60;99.90;;;;;;4917151;29;20215;-82
2022/12/21 07:10:57;;;;;;;19.87;18.63;;;8.60;99.90;;;;;;4915541;29;20224;-80
2022/12/21 07:13:25;;;;;;;19.57;18.47;;;8.70;99.90;;;;;;4920169;29;20299;-81
2022/12/21 07:15:51;;;;;;;19.80;18.60;;;8.60;99.90;;;;;;4919312;29;20210;-80
2022/12/21 07:18:18;;;;;;;20.47;19.27;;;8.60;99.90;;;;;;4928366;29;20199;-85
2022/12/21 07:20:45;;;;;;;20.27;18.97;;;8.50;99.90;;;;;;4920220;29;20223;-86
2022/12/21 07:23:12;;;;;;;19.87;18.67;;;8.50;99.90;;;;;;4917911;29;20208;-83
2022/12/21 07:25:41;;;;;;;19.20;17.90;;;8.50;99.90;;;;;;4922299;29;20631;-84
2022/12/21 07:28:08;;;;;;;19.87;18.67;;;8.50;99.90;;;;;;4915513;29;20207;-84
2022/12/21 07:30:34;;;;;;;18.57;17.47;;;8.50;99.90;;;;;;4918745;29;20232;-86
2022/12/21 07:33:01;;;;;;;18.60;17.40;;;8.50;99.90;;;;;;4908721;29;20625;-83
2022/12/21 07:35:28;;;;;;;18.67;17.57;;;8.40;99.90;;;;;;4912219;29;20274;-85
2022/12/21 07:37:55;;;;;;;18.60;17.40;;;8.40;99.90;;;;;;4915622;29;20251;-79
2022/12/21 07:40:22;;;;;;;19.10;17.80;;;8.40;99.90;;;;;;4919766;29;20267;-77
2022/12/21 07:42:50;;;;;;;19.27;18.07;;;8.40;99.90;;;;;;4928469;29;20246;-80
2022/12/21 07:45:32;;;;;;;19.17;17.87;;;8.40;99.90;;;;;;4911637;29;20631;-76
2022/12/21 07:48:00;;;;;;;19.33;17.97;;;8.40;99.90;;;;;;4912375;29;20259;-76
2022/12/21 07:50:27;;;;;;;19.47;18.27;;;8.40;99.90;;;;;;4914062;29;20650;-76
2022/12/21 07:52:54;;;;;;;19.03;17.83;;;8.40;99.90;;;;;;4909163;29;20193;-76
2022/12/21 07:55:20;;;;;;;18.63;17.50;;;8.40;99.90;;;;;;4915871;29;20220;-76
2022/12/21 07:57:47;;;;;;;18.97;17.80;;;8.30;99.90;;;;;;4922749;29;20207;-76
2022/12/21 08:00:17;;;;;;;19.60;18.20;;;8.30;99.90;;;;;;4925213;29;20207;-78
2022/12/21 08:02:44;;;;;;;18.37;17.27;;;8.30;99.90;;;;;;4927451;29;20231;-79
2022/12/21 08:05:11;;;;;;;18.90;17.70;;;8.30;99.90;;;;;;4927934;29;20231;-79
2022/12/21 08:07:38;;;;;;;18.27;17.17;;;8.40;99.90;;;;;;4929527;29;20242;-79
2022/12/21 08:10:05;;;;;;;18.77;17.57;;;8.40;99.90;;;;;;4926594;29;20200;-79
2022/12/21 08:12:32;;;;;;;18.93;17.73;;;8.40;99.90;;;;;;4924692;29;20249;-79
2022/12/21 08:14:59;;;;;;;18.70;17.50;;;8.40;99.90;;;;;;4927865;29;20276;-79
2022/12/21 08:17:27;;;;;;;18.70;17.47;;;8.40;99.90;;;;;;4926802;29;20200;-78
2022/12/21 08:19:54;;;;;;;17.87;16.67;;;8.30;99.90;;;;;;4927713;29;20255;-79
2022/12/21 08:22:21;;;;;;;18.10;17.00;;;8.40;99.90;;;;;;4921867;29;20635;-82
2022/12/21 08:24:48;;;;;;;18.17;17.07;;;8.40;99.90;;;;;;4924106;29;20624;-79
2022/12/21 08:27:15;;;;;;;18.43;17.33;;;8.40;99.90;;;;;;4922363;29;20329;-78
2022/12/21 08:29:41;;;;;;;17.80;16.70;;;8.40;99.90;;;;;;4918517;29;20268;-80
2022/12/21 08:32:08;;;;;;;17.57;16.37;;;8.40;99.90;;;;;;4917978;29;20219;-78
2022/12/21 08:34:36;;;;;;;18.10;16.90;;;8.40;99.90;;;;;;4913276;29;20267;-78
2022/12/21 08:37:03;;;;;;;17.50;16.40;;;8.40;99.90;;;;;;4925846;29;20668;-80
2022/12/21 08:39:30;;;;;;;17.23;16.17;;;8.40;99.90;;;;;;4922606;29;20204;-80
2022/12/21 08:41:57;;;;;;;16.83;15.83;;;8.40;99.90;;;;;;4912451;29;20833;-82
2022/12/21 08:44:24;;;;;;;17.97;16.83;;;8.40;99.90;;;;;;4918877;29;20293;-81
2022/12/21 08:46:50;;;;;;;17.10;16.10;;;8.40;99.90;;;;;;4913370;29;20208;-83
2022/12/21 08:49:17;;;;;;;17.40;16.40;;;8.40;99.90;;;;;;4907539;29;20209;-83
2022/12/21 08:51:46;;;;;;;17.63;16.53;;;8.40;99.90;;;;;;4916526;29;20233;-80
2022/12/21 08:54:12;;;;;;;18.40;17.30;;;8.50;99.90;;;;;;4949504;29;20226;-80
2022/12/21 08:56:39;;;;;;;17.80;16.80;;;8.50;99.90;;;;;;4929173;29;20743;-80
2022/12/21 08:59:07;;;;;;;19.20;18.00;;;8.50;99.90;;;;;;4926647;29;20751;-80
2022/12/21 09:01:36;;;;;;;18.93;17.73;;;8.60;99.90;;;;;;4927746;29;20223;-80
2022/12/21 09:04:03;;;;;;;18.30;17.10;;;8.60;99.90;;;;;;4932758;29;20373;-79
2022/12/21 09:06:30;;;;;;;18.30;17.17;;;8.60;99.90;;;;;;4923673;29;20264;-80
2022/12/21 09:08:59;;;;;;;18.13;16.93;;;8.60;99.90;;;;;;4929390;29;20598;-79
2022/12/21 09:11:27;;;;;;;17.73;16.63;;;8.70;99.90;;;;;;4922319;29;20651;-79
2022/12/21 09:13:54;;;;;;;18.43;17.23;;;8.70;99.90;;;;;;4929356;29;20226;-80
2022/12/21 09:16:22;;;;;;;18.63;17.43;;;8.80;99.90;;;;;;4919663;29;20280;-79
2022/12/21 09:18:50;;;;;;;18.07;16.97;;;8.80;99.90;;;;;;4917932;29;20616;-80
2022/12/21 09:21:19;;;;;;;18.23;17.13;;;8.80;99.90;;;;;;4931409;29;20224;-80
2022/12/21 09:23:46;;;;;;;18.03;16.87;;;8.80;99.90;;;;;;4926127;29;20227;-80
2022/12/21 09:26:15;;;;;;;17.63;16.53;;;8.80;99.90;;;;;;4921734;29;20562;-79
2022/12/21 09:28:41;;;;;;;17.60;16.57;;;8.80;99.90;;;;;;4923895;29;20231;-79
2022/12/21 09:31:11;;;;;;;18.03;16.93;;;8.80;99.90;;;;;;4916730;29;20321;-80
2022/12/21 09:33:39;;;;;;;17.17;16.17;;;8.80;99.90;;;;;;4925183;29;20210;-79
2022/12/21 09:36:07;;;;;;;17.77;16.77;;;8.80;99.90;;;;;;4911995;29;20779;-80
2022/12/21 09:38:34;;;;;;;17.83;16.83;;;8.80;99.90;;;;;;4921378;29;20263;-79
2022/12/21 09:41:02;;;;;;;17.70;16.57;;;8.90;99.90;;;;;;4914542;29;20250;-80
2022/12/21 09:43:37;;;;;;;17.70;16.60;;;8.80;99.90;;;;;;4916880;29;20210;-79
2022/12/21 09:46:06;;;;;;;17.53;16.47;;;8.90;99.90;;;;;;4933667;29;20205;-78
2022/12/21 09:48:39;;;;;;;18.03;16.93;;;8.90;99.90;;;;;;4927685;29;20248;-80
2022/12/21 09:51:12;;;;;;;18.00;16.80;;;9.00;99.90;;;;;;4924801;29;20232;-78
2022/12/21 09:53:43;;;;;;;17.77;16.67;;;9.10;99.90;;;;;;4923414;29;20201;-79
2022/12/21 09:56:16;;;;;;;17.77;16.67;;;9.10;99.90;;;;;;4922556;29;20348;-80
2022/12/21 09:58:45;;;;;;;18.03;16.70;;;9.10;99.90;;;;;;4921048;29;20209;-79
2022/12/21 10:01:37;;;;;;;17.43;16.43;;;9.10;99.90;;;;;;4921965;29;20290;-80
2022/12/21 10:04:25;;;;;;;19.17;17.77;;;9.10;99.90;;;;;;4932666;29;20231;-79
2022/12/21 10:07:14;;;;;;;18.20;17.10;;;9.20;99.90;;;;;;4926563;29;20208;-79
2022/12/21 10:09:57;;;;;;;18.07;16.97;;;9.20;99.90;;;;;;4941471;29;20207;-79
2022/12/21 10:12:33;;;;;;;17.67;16.57;;;9.30;99.90;;;;;;4926909;29;20281;-79
2022/12/21 10:15:13;;;;;;;18.23;17.13;;;9.30;99.90;;;;;;4929348;29;20263;-78
2022/12/21 10:17:52;;;;;;;18.67;17.43;;;9.40;99.90;;;;;;4921551;29;20270;-79
2022/12/21 10:20:35;;;;;;;19.60;18.40;;;9.40;99.90;;;;;;4926475;29;20196;-79
2022/12/21 10:23:05;;;;;;;19.90;18.50;;;9.40;99.90;;;;;;4910918;29;20260;-78
2022/12/21 10:25:41;;;;;;;20.23;18.90;;;9.30;99.90;;;;;;4913431;29;20203;-79
2022/12/21 10:28:22;;;;;;;19.00;17.77;;;9.30;99.90;;;;;;4910193;29;20672;-79
2022/12/21 10:30:56;;;;;;;18.30;17.20;;;9.30;99.90;;;;;;4915260;29;20236;-79
2022/12/21 10:33:24;;;;;;;18.10;17.00;;;9.30;99.90;;;;;;4914743;29;20610;-79
2022/12/21 10:35:56;;;;;;;18.23;17.13;;;9.30;99.90;;;;;;4907066;29;20243;-80
2022/12/21 10:38:23;;;;;;;18.03;16.93;;;9.30;99.90;;;;;;4919121;29;20263;-79
2022/12/21 10:40:55;;;;;;;17.90;16.80;;;9.40;99.90;;;;;;4933729;29;20668;-80
2022/12/21 10:43:22;;;;;;;18.50;17.40;;;9.50;99.90;;;;;;4929454;29;21234;-85
2022/12/21 10:45:51;;;;;;;18.50;17.20;;;9.60;99.90;;;;;;4917248;29;20205;-83
2022/12/21 10:48:19;;;;;;;18.50;17.40;;;9.70;99.90;;;;;;4915682;29;20220;-82
2022/12/21 10:50:48;;;;;;;19.10;17.90;;;9.80;99.90;;;;;;4913108;29;20238;-80
2022/12/21 10:53:22;;;;;;;18.27;17.17;;;9.90;99.90;;;;;;4930273;29;20208;-77
2022/12/21 10:55:51;;;;;;;18.37;17.20;;;10.00;99.90;;;;;;4926062;29;20243;-79
2022/12/21 10:58:19;;;;;;;18.53;17.27;;;10.00;99.90;;;;;;4922256;29;20207;-79
2022/12/21 11:00:56;;;;;;;17.67;16.57;;;10.10;99.90;;;;;;4921303;29;20232;-78
2022/12/21 11:03:26;;;;;;;17.80;16.70;;;10.10;99.90;;;;;;4929847;29;20251;-79
2022/12/21 11:05:54;;;;;;;17.37;16.27;;;10.10;99.90;;;;;;4932659;29;20195;-81
2022/12/21 11:08:25;;;;;;;17.40;16.40;;;10.20;99.90;;;;;;4927086;29;20765;-79
2022/12/21 11:10:55;;;;;;;18.00;16.80;;;10.20;99.90;;;;;;4930889;29;20577;-79
2022/12/21 11:13:24;;;;;;;17.77;16.57;;;10.20;99.90;;;;;;4924979;29;20267;-78
2022/12/21 11:15:55;;;;;;;17.33;16.27;;;10.30;99.90;;;;;;4927157;29;20216;-78
2022/12/21 11:18:37;;;;;;;17.77;16.57;;;10.40;99.90;;;;;;4921216;29;20227;-79
2022/12/21 11:21:11;;;;;;;17.20;16.10;;;10.50;99.90;;;;;;4921791;29;20279;-79
2022/12/21 11:23:37;;;;;;;17.23;16.23;;;10.50;99.90;;;;;;4920929;29;20636;-79
2022/12/21 11:26:14;;;;;;;18.10;16.90;;;10.50;99.90;;;;;;4915464;29;20196;-79
2022/12/21 11:28:41;;;;;;;18.43;17.13;;;10.50;99.90;;;;;;4918768;29;20254;-79
2022/12/21 11:31:10;;;;;;;19.00;17.80;;;10.50;99.90;;;;;;4932827;29;20224;-80
2022/12/21 11:33:37;;;;;;;17.83;16.73;;;10.70;99.90;;;;;;4924234;29;20190;-79
2022/12/21 11:36:13;;;;;;;18.30;17.20;;;10.80;99.90;;;;;;4912230;29;20201;-78
2022/12/21 11:38:41;;;;;;;18.67;17.47;;;10.80;99.90;;;;;;4923418;29;20208;-79
2022/12/21 11:41:20;;;;;;;18.37;17.17;;;10.80;99.90;;;;;;4938655;29;20624;-80
2022/12/21 11:43:49;;;;;;;18.33;17.13;;;10.70;99.90;;;;;;4933213;29;20203;-78
2022/12/21 11:46:41;;;;;;;18.50;17.40;;;10.70;99.90;;;;;;4936275;29;20243;-79
2022/12/21 11:49:49;;;;;;;18.07;16.97;;;10.70;99.90;;;;;;4927871;29;20706;-80
2022/12/21 11:52:28;;;;;;;17.97;16.87;;;10.70;99.90;;;;;;4885599;29;20287;-78
2022/12/21 11:55:02;;;;;;;17.90;16.80;;;10.80;99.90;;;;;;4923545;29;20213;-78
2022/12/21 11:57:42;;;;;;;18.17;16.97;;;10.90;99.90;;;;;;4915968;29;20224;-79
2022/12/21 12:00:14;;;;;;;18.20;17.00;;;11.00;99.90;;;;;;4923076;29;20593;-80
2022/12/21 12:03:07;;;;;;;18.17;17.00;;;11.00;99.90;;;;;;4930958;29;20235;-79
2022/12/21 12:05:50;;;;;;;17.30;16.10;;;11.00;99.90;;;;;;4916408;29;20288;-79
2022/12/21 12:08:28;;;;;;;16.83;15.83;;;11.00;99.90;;;;;;4923780;29;20581;-80
2022/12/21 12:11:13;;;;;;;16.40;15.40;;;11.00;99.90;;;;;;4925435;29;20706;-79
2022/12/21 12:14:08;;;;;;;16.40;15.30;;;11.10;99.90;;;;;;4928432;29;20213;-79
2022/12/21 12:16:44;;;;;;;17.10;16.10;;;11.10;99.90;;;;;;4931477;29;20266;-78
2022/12/21 12:19:19;;;;;;;17.13;16.13;;;11.20;99.90;;;;;;4920054;29;20212;-79
2022/12/21 12:22:04;;;;;;;16.67;15.67;;;11.20;99.90;;;;;;4919077;29;20662;-79
2022/12/21 12:24:54;;;;;;;16.07;15.17;;;11.20;99.90;;;;;;4912871;29;20551;-80
2022/12/21 12:27:36;;;;;;;15.57;14.67;;;11.30;99.90;;;;;;4919312;29;20237;-79
2022/12/21 12:30:07;;;;;;;15.63;14.73;;;11.30;99.90;;;;;;4915701;29;20284;-78
2022/12/21 12:32:50;;;;;;;16.13;15.20;;;11.40;99.90;;;;;;4920239;29;20785;-80
2022/12/21 12:35:58;;;;;;;15.77;14.87;;;11.40;99.90;;;;;;4919272;29;20663;-80
2022/12/21 12:38:37;;;;;;;15.93;15.03;;;11.40;99.90;;;;;;4904203;29;20207;-79
2022/12/21 12:41:20;;;;;;;16.13;15.13;;;11.50;99.90;;;;;;4932528;29;20709;-79
2022/12/21 12:43:55;;;;;;;15.70;14.90;;;11.50;99.90;;;;;;4921570;29;20249;-79
2022/12/21 12:46:30;;;;;;;15.47;14.57;;;11.50;99.90;;;;;;4920852;29;21589;-80
2022/12/21 12:49:11;;;;;;;15.90;15.00;;;11.60;99.90;;;;;;4910386;29;20206;-78
2022/12/21 12:51:47;;;;;;;15.83;14.77;;;11.60;99.90;;;;;;4912110;29;20221;-80
2022/12/21 12:54:28;;;;;;;15.47;14.37;;;11.60;99.90;;;;;;4912755;29;20679;-80
2022/12/21 12:57:00;;;;;;;15.80;14.90;;;11.70;99.90;;;;;;4920853;29;20258;-83
2022/12/21 12:59:33;;;;;;;15.80;14.90;;;11.60;99.90;;;;;;4927915;29;20207;-83
2022/12/21 13:02:06;;;;;;;16.30;15.40;;;11.60;99.90;;;;;;4925452;29;20234;-83
2022/12/21 13:05:00;;;;;;;15.17;14.27;;;11.60;99.90;;;;;;4940041;29;20247;-83
2022/12/21 13:07:35;;;;;;;16.20;15.30;;;11.70;99.90;;;;;;4917671;29;20236;-84
2022/12/21 13:10:13;;;;;;;16.10;15.20;;;11.70;99.90;;;;;;4923149;29;20209;-82
2022/12/21 13:12:46;;;;;;;15.20;14.40;;;11.70;99.90;;;;;;4923258;29;20636;-84
2022/12/21 13:15:20;;;;;;;16.10;15.20;;;11.70;99.90;;;;;;4923598;29;20202;-79
2022/12/21 13:17:54;;;;;;;15.00;14.20;;;11.60;99.90;;;;;;4919782;29;20624;-80
2022/12/21 13:20:22;;;;;;;15.30;14.40;;;11.70;99.90;;;;;;4921206;29;20265;-79
2022/12/21 13:22:54;;;;;;;15.20;14.40;;;11.60;99.90;;;;;;4917786;29;20586;-80
2022/12/21 13:25:28;;;;;;;15.10;14.30;;;11.60;99.90;;;;;;4914009;29;20262;-78
2022/12/21 13:27:57;;;;;;;15.60;14.70;;;11.60;99.90;;;;;;4914073;29;20228;-78
2022/12/21 13:30:24;;;;;;;14.27;13.47;;;11.50;99.90;;;;;;4911338;29;20260;-80
2022/12/21 13:32:55;;;;;;;14.60;13.80;;;11.50;99.90;;;;;;4906664;29;20302;-80
2022/12/21 13:35:26;;;;;;;14.60;13.80;;;11.50;99.90;;;;;;4920821;29;20199;-80
2022/12/21 13:38:00;;;;;;;14.30;13.50;;;11.60;99.90;;;;;;4929482;29;20249;-80
2022/12/21 13:40:33;;;;;;;15.00;14.20;;;11.60;99.90;;;;;;4925344;29;20205;-79
2022/12/21 13:43:03;;;;;;;14.93;14.03;;;11.70;99.90;;;;;;4921641;29;20261;-79
2022/12/21 13:45:37;;;;;;;14.80;14.00;;;11.60;99.90;;;;;;4918721;29;20258;-79
2022/12/21 13:48:06;;;;;;;15.43;14.53;;;11.40;99.90;;;;;;4916228;29;20301;-79
2022/12/21 13:50:39;;;;;;;15.60;14.70;;;11.30;99.90;;;;;;4919998;29;20696;-80
2022/12/21 13:53:14;;;;;;;15.27;14.47;;;11.20;99.90;;;;;;4917852;29;20238;-79
2022/12/21 13:55:50;;;;;;;14.90;14.10;;;11.30;99.90;;;;;;4921674;29;20223;-80
2022/12/21 13:58:33;;;;;;;15.27;14.40;;;11.40;99.90;;;;;;4916500;29;20210;-82
2022/12/21 14:01:11;;;;;;;15.47;14.57;;;11.50;99.90;;;;;;4917510;29;20241;-80
2022/12/21 14:03:46;;;;;;;15.00;14.20;;;11.50;99.90;;;;;;4916820;29;20210;-79
2022/12/21 14:06:53;;;;;;;15.17;14.27;;;11.50;99.90;;;;;;4926026;29;20272;-79
2022/12/21 14:09:33;;;;;;;15.50;14.60;;;11.40;99.90;;;;;;4924240;29;20215;-79
2022/12/21 14:12:23;;;;;;;15.10;14.30;;;11.30;99.90;;;;;;4924127;29;20610;-81
2022/12/21 14:15:27;;;;;;;15.13;14.23;;;11.20;99.90;;;;;;4918234;29;20206;-83
2022/12/21 14:17:57;;;;;;;14.90;14.10;;;11.20;99.90;;;;;;4911277;29;20212;-83
2022/12/21 14:20:29;;;;;;;15.00;14.20;;;11.10;99.90;;;;;;4912812;29;20204;-81
2022/12/21 14:22:57;;;;;;;14.50;13.70;;;11.00;99.90;;;;;;4923740;29;20233;-82
2022/12/21 14:25:34;;;;;;;14.23;13.33;;;11.00;99.90;;;;;;4909201;29;20570;-83
2022/12/21 14:28:16;;;;;;;15.00;14.10;;;10.90;99.90;;;;;;4923759;29;20204;-83
2022/12/21 14:30:50;;;;;;;14.47;13.67;;;10.90;99.90;;;;;;4917938;29;20259;-83
2022/12/21 14:33:21;;;;;;;14.37;13.57;;;10.90;99.90;;;;;;4927887;29;20266;-83
2022/12/21 14:36:26;;;;;;;14.20;13.40;;;10.90;99.90;;;;;;4928292;29;20695;-80
2022/12/21 14:39:29;;;;;;;13.70;13.00;;;10.80;99.90;;;;;;4919257;29;20200;-80
2022/12/21 14:42:36;;;;;;;14.10;13.30;;;10.80;99.90;;;;;;4906611;29;20310;-83
2022/12/21 14:45:46;;;;;;;14.83;13.93;;;10.80;99.90;;;;;;4922921;29;20218;-84
2022/12/21 14:48:38;;;;;;;14.30;13.50;;;10.70;99.90;;;;;;4928377;29;20251;-83
2022/12/21 14:51:09;;;;;;;14.60;13.80;;;10.70;99.90;;;;;;4927889;29;20220;-84
2022/12/21 14:53:38;;;;;;;14.03;13.30;;;10.60;99.90;;;;;;4929691;29;20288;-81
2022/12/21 14:56:11;;;;;;;14.40;13.50;;;10.60;99.90;;;;;;4927758;29;20203;-81
2022/12/21 14:58:40;;;;;;;14.57;13.77;;;10.60;99.90;;;;;;4925746;29;20349;-80
2022/12/21 15:01:20;;;;;;;14.40;13.60;;;10.50;99.90;;;;;;4927096;29;20248;-84
2022/12/21 15:03:50;;;;;;;14.53;13.73;;;10.50;99.90;;;;;;4939322;29;20676;-86
2022/12/21 15:06:27;;;;;;;14.27;13.47;;;10.40;99.90;;;;;;4923788;29;20216;-83
2022/12/21 15:08:54;;;;;;;14.23;13.43;;;10.30;99.90;;;;;;4927651;29;20276;-79
2022/12/21 15:11:25;;;;;;;14.20;13.40;;;10.20;99.90;;;;;;4928366;29;20229;-78
2022/12/21 15:13:54;;;;;;;14.40;13.60;;;10.00;99.90;;;;;;4929422;29;20712;-78
2022/12/21 15:16:27;;;;;;;14.67;13.77;;;9.90;99.90;;;;;;4926860;29;20259;-79
2022/12/21 15:18:57;;;;;;;14.80;14.00;;;9.80;99.90;;;;;;4927514;29;20206;-79
2022/12/21 15:21:36;;;;;;;15.07;14.27;;;9.70;99.90;;;;;;4927680;29;20219;-78
2022/12/21 15:24:27;;;;;;;15.43;14.53;;;9.50;99.90;;;;;;4927259;29;20210;-79
2022/12/21 15:27:00;;;;;;;15.20;14.30;;;9.50;99.90;;;;;;4928660;29;20218;-79
2022/12/21 15:29:33;;;;;;;14.80;14.00;;;9.40;99.90;;;;;;4926475;29;20199;-78
2022/12/21 15:32:08;;;;;;;14.73;13.83;;;9.40;99.90;;;;;;4928648;29;20242;-79
2022/12/21 15:34:41;;;;;;;14.90;13.90;;;9.40;99.90;;;;;;4923749;29;20214;-79
2022/12/21 15:37:19;;;;;;;14.83;14.00;;;9.40;99.90;;;;;;4930246;29;20207;-79
2022/12/21 15:39:47;;;;;;;14.93;14.13;;;9.40;99.90;;;;;;4925554;29;20206;-79
2022/12/21 15:42:19;;;;;;;15.43;14.53;;;9.40;99.90;;;;;;4930376;29;20259;-79
2022/12/21 15:44:52;;;;;;;15.23;14.33;;;9.40;99.90;;;;;;4923721;29;20581;-78
2022/12/21 15:47:35;;;;;;;15.20;14.30;;;9.40;99.90;;;;;;4933003;29;20273;-78
2022/12/21 15:50:08;;;;;;;15.13;14.33;;;9.30;99.90;;;;;;4924424;29;20200;-78
2022/12/21 15:52:41;;;;;;;15.60;14.70;;;9.30;99.90;;;;;;4930476;29;20218;-78
2022/12/21 15:55:13;;;;;;;15.40;14.50;;;9.20;99.90;;;;;;4927271;29;20259;-78
2022/12/21 15:57:43;;;;;;;15.73;14.83;;;9.20;99.90;;;;;;4928716;29;20196;-79
2022/12/21 16:00:15;;;;;;;15.93;14.93;;;9.20;99.90;;;;;;4930111;29;20204;-79
2022/12/21 16:02:46;;;;;;;15.93;14.93;;;9.20;99.90;;;;;;4923625;29;20311;-79
2022/12/21 16:05:15;;;;;;;17.07;15.87;;;9.20;99.90;;;;;;4924864;29;20207;-79
2022/12/21 16:07:44;;;;;;;15.57;14.57;;;9.10;99.90;;;;;;4928687;29;20261;-78